sensor_id;sensor_type;location;lat;lon;timestamp;P1;durP1;ratioP1;P2;durP2;ratioP2
53521;SDS011;39398;48.382;9.802;2024-03-08T00:02:00;74.03;;;28.85;;
53521;SDS011;39398;48.382;9.802;2024-03-08T00:07:03;81.78;;;33.30;;
53521;SDS011;39398;48.382;9.802;2024-03-08T00:12:05;81.57;;;34.88;;
53521;SDS011;39398;48.382;9.802;2024-03-08T00:17:07;81.93;;;35.10;;
53521;SDS011;39398;48.382;9.802;2024-03-08T00:22:10;83.38;;;34.25;;
53521;SDS011;39398;48.382;9.802;2024-03-08T00:27:11;72.25;;;30.63;;
53521;SDS011;39398;48.382;9.802;2024-03-08T00:32:13;77.00;;;33.00;;
53521;SDS011;39398;48.382;9.802;2024-03-08T00:37:16;103.40;;;39.08;;
53521;SDS011;39398;48.382;9.802;2024-03-08T00:42:17;62.00;;;25.73;;
53521;SDS011;39398;48.382;9.802;2024-03-08T00:47:19;83.78;;;35.63;;
53521;SDS011;39398;48.382;9.802;2024-03-08T00:52:22;79.53;;;34.08;;
53521;SDS011;39398;48.382;9.802;2024-03-08T00:57:24;57.95;;;22.95;;
53521;SDS011;39398;48.382;9.802;2024-03-08T01:02:26;87.38;;;36.88;;
53521;SDS011;39398;48.382;9.802;2024-03-08T01:07:29;83.63;;;35.58;;
53521;SDS011;39398;48.382;9.802;2024-03-08T01:12:30;85.88;;;36.47;;
53521;SDS011;39398;48.382;9.802;2024-03-08T01:17:32;80.75;;;35.47;;
53521;SDS011;39398;48.382;9.802;2024-03-08T01:22:35;73.13;;;27.65;;
53521;SDS011;39398;48.382;9.802;2024-03-08T01:27:37;89.60;;;36.47;;
53521;SDS011;39398;48.382;9.802;2024-03-08T01:32:38;78.35;;;35.03;;
53521;SDS011;39398;48.382;9.802;2024-03-08T01:37:42;73.35;;;32.08;;
53521;SDS011;39398;48.382;9.802;2024-03-08T01:42:44;82.88;;;35.00;;
53521;SDS011;39398;48.382;9.802;2024-03-08T01:47:45;74.47;;;31.52;;
53521;SDS011;39398;48.382;9.802;2024-03-08T01:52:48;76.70;;;34.10;;
53521;SDS011;39398;48.382;9.802;2024-03-08T01:57:50;87.20;;;34.38;;
53521;SDS011;39398;48.382;9.802;2024-03-08T02:02:53;69.82;;;30.88;;
53521;SDS011;39398;48.382;9.802;2024-03-08T02:07:56;83.55;;;34.00;;
53521;SDS011;39398;48.382;9.802;2024-03-08T02:12:58;77.85;;;32.60;;
53521;SDS011;39398;48.382;9.802;2024-03-08T02:18:00;176.45;;;39.20;;
53521;SDS011;39398;48.382;9.802;2024-03-08T02:23:03;83.85;;;35.55;;
53521;SDS011;39398;48.382;9.802;2024-03-08T02:28:05;71.95;;;31.58;;
53521;SDS011;39398;48.382;9.802;2024-03-08T02:33:07;82.13;;;34.13;;
53521;SDS011;39398;48.382;9.802;2024-03-08T02:38:10;80.82;;;34.90;;
53521;SDS011;39398;48.382;9.802;2024-03-08T02:43:12;82.22;;;33.75;;
53521;SDS011;39398;48.382;9.802;2024-03-08T02:48:15;81.65;;;36.15;;
53521;SDS011;39398;48.382;9.802;2024-03-08T02:53:18;74.88;;;32.10;;
53521;SDS011;39398;48.382;9.802;2024-03-08T02:58:20;92.25;;;38.50;;
53521;SDS011;39398;48.382;9.802;2024-03-08T03:03:22;88.00;;;37.03;;
53521;SDS011;39398;48.382;9.802;2024-03-08T03:08:25;74.43;;;33.72;;
53521;SDS011;39398;48.382;9.802;2024-03-08T03:13:27;76.50;;;32.80;;
53521;SDS011;39398;48.382;9.802;2024-03-08T03:18:28;78.85;;;35.30;;
53521;SDS011;39398;48.382;9.802;2024-03-08T03:23:31;76.15;;;33.75;;
53521;SDS011;39398;48.382;9.802;2024-03-08T03:28:33;68.95;;;31.48;;
53521;SDS011;39398;48.382;9.802;2024-03-08T03:33:34;69.40;;;31.55;;
53521;SDS011;39398;48.382;9.802;2024-03-08T03:38:38;69.55;;;32.17;;
53521;SDS011;39398;48.382;9.802;2024-03-08T03:43:39;61.92;;;29.73;;
53521;SDS011;39398;48.382;9.802;2024-03-08T03:48:41;70.70;;;32.97;;
53521;SDS011;39398;48.382;9.802;2024-03-08T03:53:44;70.32;;;31.05;;
53521;SDS011;39398;48.382;9.802;2024-03-08T03:58:45;61.35;;;28.23;;
53521;SDS011;39398;48.382;9.802;2024-03-08T04:03:47;67.60;;;31.05;;
53521;SDS011;39398;48.382;9.802;2024-03-08T04:08:50;64.90;;;27.23;;
53521;SDS011;39398;48.382;9.802;2024-03-08T04:13:53;59.50;;;30.48;;
53521;SDS011;39398;48.382;9.802;2024-03-08T04:18:54;60.10;;;29.90;;
53521;SDS011;39398;48.382;9.802;2024-03-08T04:23:57;63.30;;;30.48;;
53521;SDS011;39398;48.382;9.802;2024-03-08T04:28:59;63.00;;;29.35;;
53521;SDS011;39398;48.382;9.802;2024-03-08T04:34:00;68.07;;;30.55;;
53521;SDS011;39398;48.382;9.802;2024-03-08T04:39:03;68.90;;;30.73;;
53521;SDS011;39398;48.382;9.802;2024-03-08T04:44:05;72.43;;;33.28;;
53521;SDS011;39398;48.382;9.802;2024-03-08T04:49:07;70.20;;;31.67;;
53521;SDS011;39398;48.382;9.802;2024-03-08T04:54:10;68.68;;;33.15;;
53521;SDS011;39398;48.382;9.802;2024-03-08T04:59:11;70.82;;;32.55;;
53521;SDS011;39398;48.382;9.802;2024-03-08T05:04:14;71.82;;;32.60;;
53521;SDS011;39398;48.382;9.802;2024-03-08T05:09:19;68.72;;;31.25;;
53521;SDS011;39398;48.382;9.802;2024-03-08T05:14:20;68.68;;;30.55;;
53521;SDS011;39398;48.382;9.802;2024-03-08T05:19:22;75.30;;;34.90;;
53521;SDS011;39398;48.382;9.802;2024-03-08T05:24:25;71.60;;;34.30;;
53521;SDS011;39398;48.382;9.802;2024-03-08T05:29:27;78.70;;;35.58;;
53521;SDS011;39398;48.382;9.802;2024-03-08T05:34:28;88.20;;;38.00;;
53521;SDS011;39398;48.382;9.802;2024-03-08T05:39:31;92.10;;;39.80;;
53521;SDS011;39398;48.382;9.802;2024-03-08T05:44:33;84.63;;;37.20;;
53521;SDS011;39398;48.382;9.802;2024-03-08T05:49:34;83.32;;;35.22;;
53521;SDS011;39398;48.382;9.802;2024-03-08T05:54:37;93.80;;;38.42;;
53521;SDS011;39398;48.382;9.802;2024-03-08T05:59:39;88.32;;;38.95;;
53521;SDS011;39398;48.382;9.802;2024-03-08T06:04:40;94.82;;;39.53;;
53521;SDS011;39398;48.382;9.802;2024-03-08T06:09:44;92.65;;;38.83;;
53521;SDS011;39398;48.382;9.802;2024-03-08T06:14:46;119.03;;;42.40;;
53521;SDS011;39398;48.382;9.802;2024-03-08T06:19:47;85.95;;;37.70;;
53521;SDS011;39398;48.382;9.802;2024-03-08T06:24:50;97.97;;;38.90;;
53521;SDS011;39398;48.382;9.802;2024-03-08T06:29:52;118.07;;;37.88;;
53521;SDS011;39398;48.382;9.802;2024-03-08T06:34:53;91.10;;;34.65;;
53521;SDS011;39398;48.382;9.802;2024-03-08T06:39:56;89.50;;;35.28;;
53521;SDS011;39398;48.382;9.802;2024-03-08T06:44:58;97.15;;;38.60;;
53521;SDS011;39398;48.382;9.802;2024-03-08T06:49:59;92.80;;;35.90;;
53521;SDS011;39398;48.382;9.802;2024-03-08T06:55:03;98.43;;;39.45;;
53521;SDS011;39398;48.382;9.802;2024-03-08T07:00:05;106.15;;;38.30;;
53521;SDS011;39398;48.382;9.802;2024-03-08T07:05:08;96.85;;;38.10;;
53521;SDS011;39398;48.382;9.802;2024-03-08T07:10:11;98.32;;;37.85;;
53521;SDS011;39398;48.382;9.802;2024-03-08T07:15:12;99.60;;;35.35;;
53521;SDS011;39398;48.382;9.802;2024-03-08T07:20:14;110.25;;;38.92;;
53521;SDS011;39398;48.382;9.802;2024-03-08T07:25:18;85.35;;;34.13;;
53521;SDS011;39398;48.382;9.802;2024-03-08T07:30:20;102.63;;;36.63;;
53521;SDS011;39398;48.382;9.802;2024-03-08T07:35:24;94.00;;;33.92;;
53521;SDS011;39398;48.382;9.802;2024-03-08T07:40:27;96.38;;;36.95;;
53521;SDS011;39398;48.382;9.802;2024-03-08T07:45:29;82.00;;;33.33;;
53521;SDS011;39398;48.382;9.802;2024-03-08T07:50:30;88.10;;;33.90;;
53521;SDS011;39398;48.382;9.802;2024-03-08T07:55:33;100.90;;;38.38;;
53521;SDS011;39398;48.382;9.802;2024-03-08T08:00:35;91.90;;;38.80;;
53521;SDS011;39398;48.382;9.802;2024-03-08T08:05:37;100.07;;;37.33;;
53521;SDS011;39398;48.382;9.802;2024-03-08T08:10:39;95.75;;;36.45;;
53521;SDS011;39398;48.382;9.802;2024-03-08T08:15:41;97.97;;;38.05;;
53521;SDS011;39398;48.382;9.802;2024-03-08T08:20:43;90.63;;;36.95;;
53521;SDS011;39398;48.382;9.802;2024-03-08T08:25:46;82.13;;;36.40;;
53521;SDS011;39398;48.382;9.802;2024-03-08T08:30:47;85.88;;;35.95;;
53521;SDS011;39398;48.382;9.802;2024-03-08T08:35:49;81.43;;;35.78;;
53521;SDS011;39398;48.382;9.802;2024-03-08T08:40:52;119.03;;;40.00;;
53521;SDS011;39398;48.382;9.802;2024-03-08T08:45:53;87.53;;;34.83;;
53521;SDS011;39398;48.382;9.802;2024-03-08T08:50:55;81.32;;;36.10;;
53521;SDS011;39398;48.382;9.802;2024-03-08T08:55:58;72.10;;;33.13;;
53521;SDS011;39398;48.382;9.802;2024-03-08T09:01:00;72.03;;;34.05;;
53521;SDS011;39398;48.382;9.802;2024-03-08T09:06:02;74.60;;;33.70;;
53521;SDS011;39398;48.382;9.802;2024-03-08T09:11:05;75.85;;;35.15;;
53521;SDS011;39398;48.382;9.802;2024-03-08T09:16:07;68.63;;;33.13;;
53521;SDS011;39398;48.382;9.802;2024-03-08T09:21:08;155.10;;;65.20;;
53521;SDS011;39398;48.382;9.802;2024-03-08T09:26:11;69.20;;;33.22;;
53521;SDS011;39398;48.382;9.802;2024-03-08T09:31:23;78.57;;;34.80;;
53521;SDS011;39398;48.382;9.802;2024-03-08T09:36:24;67.38;;;32.92;;
53521;SDS011;39398;48.382;9.802;2024-03-08T09:41:27;74.15;;;35.83;;
53521;SDS011;39398;48.382;9.802;2024-03-08T09:46:29;77.50;;;36.47;;
53521;SDS011;39398;48.382;9.802;2024-03-08T09:51:31;91.28;;;41.70;;
53521;SDS011;39398;48.382;9.802;2024-03-08T09:56:36;85.50;;;38.88;;
53521;SDS011;39398;48.382;9.802;2024-03-08T10:01:40;74.10;;;34.00;;
53521;SDS011;39398;48.382;9.802;2024-03-08T10:06:41;71.45;;;33.20;;
53521;SDS011;39398;48.382;9.802;2024-03-08T10:11:44;65.68;;;32.50;;
53521;SDS011;39398;48.382;9.802;2024-03-08T10:16:46;61.28;;;33.15;;
53521;SDS011;39398;48.382;9.802;2024-03-08T10:21:48;64.72;;;32.45;;
53521;SDS011;39398;48.382;9.802;2024-03-08T10:26:52;71.70;;;32.97;;
53521;SDS011;39398;48.382;9.802;2024-03-08T10:31:54;66.38;;;32.78;;
53521;SDS011;39398;48.382;9.802;2024-03-08T10:36:56;68.15;;;32.72;;
53521;SDS011;39398;48.382;9.802;2024-03-08T10:42:05;62.28;;;31.60;;
53521;SDS011;39398;48.382;9.802;2024-03-08T10:47:15;81.15;;;37.33;;
53521;SDS011;39398;48.382;9.802;2024-03-08T10:57:23;71.25;;;34.80;;
53521;SDS011;39398;48.382;9.802;2024-03-08T11:02:27;68.72;;;33.78;;
53521;SDS011;39398;48.382;9.802;2024-03-08T11:07:30;50.42;;;27.40;;
53521;SDS011;39398;48.382;9.802;2024-03-08T11:12:37;59.15;;;28.40;;
53521;SDS011;39398;48.382;9.802;2024-03-08T11:17:45;66.68;;;32.78;;
53521;SDS011;39398;48.382;9.802;2024-03-08T11:22:49;67.90;;;35.42;;
53521;SDS011;39398;48.382;9.802;2024-03-08T11:27:53;60.70;;;31.52;;
53521;SDS011;39398;48.382;9.802;2024-03-08T11:33:10;58.60;;;31.15;;
53521;SDS011;39398;48.382;9.802;2024-03-08T11:38:12;66.80;;;33.13;;
53521;SDS011;39398;48.382;9.802;2024-03-08T11:43:15;57.95;;;29.83;;
53521;SDS011;39398;48.382;9.802;2024-03-08T11:48:17;57.00;;;30.15;;
53521;SDS011;39398;48.382;9.802;2024-03-08T11:53:19;50.20;;;27.65;;
53521;SDS011;39398;48.382;9.802;2024-03-08T11:58:22;50.22;;;26.17;;
53521;SDS011;39398;48.382;9.802;2024-03-08T12:03:24;44.45;;;24.70;;
53521;SDS011;39398;48.382;9.802;2024-03-08T12:08:25;49.80;;;26.35;;
53521;SDS011;39398;48.382;9.802;2024-03-08T12:13:29;43.88;;;23.38;;
53521;SDS011;39398;48.382;9.802;2024-03-08T12:18:32;44.15;;;25.50;;
53521;SDS011;39398;48.382;9.802;2024-03-08T12:23:35;56.20;;;28.40;;
53521;SDS011;39398;48.382;9.802;2024-03-08T12:28:38;52.50;;;28.40;;
53521;SDS011;39398;48.382;9.802;2024-03-08T12:33:46;53.92;;;30.08;;
53521;SDS011;39398;48.382;9.802;2024-03-08T12:38:50;49.33;;;27.02;;
53521;SDS011;39398;48.382;9.802;2024-03-08T12:43:55;43.60;;;24.85;;
53521;SDS011;39398;48.382;9.802;2024-03-08T12:48:57;48.42;;;25.67;;
53521;SDS011;39398;48.382;9.802;2024-03-08T12:53:59;43.35;;;24.02;;
53521;SDS011;39398;48.382;9.802;2024-03-08T12:59:02;41.15;;;23.85;;
53521;SDS011;39398;48.382;9.802;2024-03-08T13:04:05;39.42;;;22.08;;
53521;SDS011;39398;48.382;9.802;2024-03-08T13:09:07;48.30;;;25.70;;
53521;SDS011;39398;48.382;9.802;2024-03-08T13:14:11;48.88;;;26.88;;
53521;SDS011;39398;48.382;9.802;2024-03-08T13:19:13;49.72;;;28.45;;
53521;SDS011;39398;48.382;9.802;2024-03-08T13:24:14;47.03;;;21.95;;
53521;SDS011;39398;48.382;9.802;2024-03-08T13:29:17;45.97;;;25.40;;
53521;SDS011;39398;48.382;9.802;2024-03-08T13:34:19;41.67;;;23.42;;
53521;SDS011;39398;48.382;9.802;2024-03-08T13:39:20;44.20;;;24.65;;
53521;SDS011;39398;48.382;9.802;2024-03-08T13:44:23;46.72;;;24.55;;
53521;SDS011;39398;48.382;9.802;2024-03-08T13:49:25;45.22;;;26.05;;
53521;SDS011;39398;48.382;9.802;2024-03-08T13:54:27;45.13;;;25.02;;
53521;SDS011;39398;48.382;9.802;2024-03-08T13:59:30;43.75;;;25.55;;
53521;SDS011;39398;48.382;9.802;2024-03-08T14:04:32;47.53;;;25.38;;
53521;SDS011;39398;48.382;9.802;2024-03-08T14:09:33;48.30;;;26.45;;
53521;SDS011;39398;48.382;9.802;2024-03-08T14:14:36;44.95;;;25.83;;
53521;SDS011;39398;48.382;9.802;2024-03-08T14:19:39;43.17;;;26.15;;
53521;SDS011;39398;48.382;9.802;2024-03-08T14:24:41;44.55;;;27.05;;
53521;SDS011;39398;48.382;9.802;2024-03-08T14:29:44;40.55;;;25.98;;
53521;SDS011;39398;48.382;9.802;2024-03-08T14:34:46;42.90;;;26.35;;
53521;SDS011;39398;48.382;9.802;2024-03-08T14:39:47;45.78;;;27.10;;
53521;SDS011;39398;48.382;9.802;2024-03-08T14:44:50;41.72;;;26.80;;
53521;SDS011;39398;48.382;9.802;2024-03-08T14:49:52;43.00;;;25.58;;
53521;SDS011;39398;48.382;9.802;2024-03-08T14:54:54;40.90;;;26.45;;
53521;SDS011;39398;48.382;9.802;2024-03-08T14:59:57;41.72;;;25.08;;
53521;SDS011;39398;48.382;9.802;2024-03-08T15:04:58;40.15;;;24.42;;
53521;SDS011;39398;48.382;9.802;2024-03-08T15:10:00;40.72;;;24.55;;
53521;SDS011;39398;48.382;9.802;2024-03-08T15:15:03;39.05;;;23.88;;
53521;SDS011;39398;48.382;9.802;2024-03-08T15:20:05;38.03;;;23.13;;
53521;SDS011;39398;48.382;9.802;2024-03-08T15:25:08;34.13;;;21.50;;
53521;SDS011;39398;48.382;9.802;2024-03-08T15:30:11;35.47;;;22.00;;
53521;SDS011;39398;48.382;9.802;2024-03-08T15:35:13;34.72;;;20.80;;
53521;SDS011;39398;48.382;9.802;2024-03-08T15:40:15;34.75;;;21.52;;
53521;SDS011;39398;48.382;9.802;2024-03-08T15:45:18;35.42;;;21.58;;
53521;SDS011;39398;48.382;9.802;2024-03-08T15:50:20;29.50;;;19.15;;
53521;SDS011;39398;48.382;9.802;2024-03-08T15:55:22;38.83;;;19.80;;
53521;SDS011;39398;48.382;9.802;2024-03-08T16:00:25;30.52;;;18.80;;
53521;SDS011;39398;48.382;9.802;2024-03-08T16:05:28;29.77;;;19.27;;
53521;SDS011;39398;48.382;9.802;2024-03-08T16:10:30;31.63;;;18.63;;
53521;SDS011;39398;48.382;9.802;2024-03-08T16:15:33;31.13;;;18.05;;
53521;SDS011;39398;48.382;9.802;2024-03-08T16:20:35;31.20;;;17.98;;
53521;SDS011;39398;48.382;9.802;2024-03-08T16:25:37;29.63;;;17.58;;
53521;SDS011;39398;48.382;9.802;2024-03-08T16:30:41;26.45;;;17.17;;
53521;SDS011;39398;48.382;9.802;2024-03-08T16:35:44;26.38;;;16.52;;
53521;SDS011;39398;48.382;9.802;2024-03-08T16:40:49;30.95;;;17.02;;
53521;SDS011;39398;48.382;9.802;2024-03-08T16:45:52;23.38;;;16.05;;
53521;SDS011;39398;48.382;9.802;2024-03-08T16:50:54;23.25;;;15.15;;
53521;SDS011;39398;48.382;9.802;2024-03-08T16:55:56;27.10;;;15.93;;
53521;SDS011;39398;48.382;9.802;2024-03-08T17:00:59;24.27;;;14.98;;
53521;SDS011;39398;48.382;9.802;2024-03-08T17:06:01;25.92;;;15.45;;
53521;SDS011;39398;48.382;9.802;2024-03-08T17:11:02;26.52;;;15.70;;
53521;SDS011;39398;48.382;9.802;2024-03-08T17:16:06;26.08;;;16.13;;
53521;SDS011;39398;48.382;9.802;2024-03-08T17:21:08;23.33;;;15.20;;
53521;SDS011;39398;48.382;9.802;2024-03-08T17:26:10;25.77;;;15.48;;
53521;SDS011;39398;48.382;9.802;2024-03-08T17:31:14;23.50;;;15.68;;
53521;SDS011;39398;48.382;9.802;2024-03-08T17:36:16;22.13;;;13.48;;
53521;SDS011;39398;48.382;9.802;2024-03-08T17:41:18;25.63;;;15.55;;
53521;SDS011;39398;48.382;9.802;2024-03-08T17:46:21;26.27;;;15.63;;
53521;SDS011;39398;48.382;9.802;2024-03-08T17:51:23;27.88;;;16.58;;
53521;SDS011;39398;48.382;9.802;2024-03-08T17:56:24;32.83;;;17.98;;
53521;SDS011;39398;48.382;9.802;2024-03-08T18:01:28;28.60;;;17.38;;
53521;SDS011;39398;48.382;9.802;2024-03-08T18:06:33;24.13;;;15.37;;
53521;SDS011;39398;48.382;9.802;2024-03-08T18:11:35;25.80;;;15.23;;
53521;SDS011;39398;48.382;9.802;2024-03-08T18:16:38;22.05;;;14.40;;
53521;SDS011;39398;48.382;9.802;2024-03-08T18:21:40;20.17;;;13.15;;
53521;SDS011;39398;48.382;9.802;2024-03-08T18:26:42;22.25;;;13.90;;
53521;SDS011;39398;48.382;9.802;2024-03-08T18:31:45;25.10;;;14.63;;
53521;SDS011;39398;48.382;9.802;2024-03-08T18:36:49;26.90;;;14.52;;
53521;SDS011;39398;48.382;9.802;2024-03-08T18:41:50;23.40;;;13.40;;
53521;SDS011;39398;48.382;9.802;2024-03-08T18:46:53;23.30;;;13.35;;
53521;SDS011;39398;48.382;9.802;2024-03-08T18:51:55;23.42;;;12.98;;
53521;SDS011;39398;48.382;9.802;2024-03-08T18:56:57;24.13;;;13.07;;
53521;SDS011;39398;48.382;9.802;2024-03-08T19:01:59;21.50;;;12.85;;
53521;SDS011;39398;48.382;9.802;2024-03-08T19:07:01;21.75;;;12.68;;
53521;SDS011;39398;48.382;9.802;2024-03-08T19:12:03;18.63;;;11.48;;
53521;SDS011;39398;48.382;9.802;2024-03-08T19:17:07;19.20;;;10.82;;
53521;SDS011;39398;48.382;9.802;2024-03-08T19:22:08;19.45;;;9.90;;
53521;SDS011;39398;48.382;9.802;2024-03-08T19:27:10;20.40;;;11.32;;
53521;SDS011;39398;48.382;9.802;2024-03-08T19:32:13;18.05;;;10.77;;
53521;SDS011;39398;48.382;9.802;2024-03-08T19:37:14;21.30;;;12.07;;
53521;SDS011;39398;48.382;9.802;2024-03-08T19:42:16;20.10;;;11.40;;
53521;SDS011;39398;48.382;9.802;2024-03-08T19:47:19;19.38;;;11.80;;
53521;SDS011;39398;48.382;9.802;2024-03-08T19:52:20;21.92;;;12.75;;
53521;SDS011;39398;48.382;9.802;2024-03-08T19:57:22;23.45;;;13.00;;
53521;SDS011;39398;48.382;9.802;2024-03-08T20:02:25;19.25;;;11.07;;
53521;SDS011;39398;48.382;9.802;2024-03-08T20:07:27;19.95;;;10.52;;
53521;SDS011;39398;48.382;9.802;2024-03-08T20:12:28;11.40;;;6.35;;
53521;SDS011;39398;48.382;9.802;2024-03-08T20:17:31;21.83;;;10.82;;
53521;SDS011;39398;48.382;9.802;2024-03-08T20:22:33;22.00;;;11.75;;
53521;SDS011;39398;48.382;9.802;2024-03-08T20:27:35;22.15;;;12.10;;
53521;SDS011;39398;48.382;9.802;2024-03-08T20:32:38;19.75;;;10.93;;
53521;SDS011;39398;48.382;9.802;2024-03-08T20:37:39;21.55;;;12.48;;
53521;SDS011;39398;48.382;9.802;2024-03-08T20:42:41;18.30;;;11.32;;
53521;SDS011;39398;48.382;9.802;2024-03-08T20:47:44;20.85;;;11.07;;
53521;SDS011;39398;48.382;9.802;2024-03-08T20:52:47;19.80;;;10.73;;
53521;SDS011;39398;48.382;9.802;2024-03-08T20:57:49;22.13;;;10.73;;
53521;SDS011;39398;48.382;9.802;2024-03-08T21:02:53;18.70;;;9.75;;
53521;SDS011;39398;48.382;9.802;2024-03-08T21:07:55;21.80;;;12.45;;
53521;SDS011;39398;48.382;9.802;2024-03-08T21:12:56;18.92;;;10.32;;
53521;SDS011;39398;48.382;9.802;2024-03-08T21:17:59;22.20;;;11.07;;
53521;SDS011;39398;48.382;9.802;2024-03-08T21:23:01;25.92;;;14.05;;
53521;SDS011;39398;48.382;9.802;2024-03-08T21:28:03;25.58;;;14.65;;
53521;SDS011;39398;48.382;9.802;2024-03-08T21:33:07;23.92;;;14.38;;
53521;SDS011;39398;48.382;9.802;2024-03-08T21:38:08;27.27;;;15.60;;
53521;SDS011;39398;48.382;9.802;2024-03-08T21:43:11;27.23;;;15.25;;
53521;SDS011;39398;48.382;9.802;2024-03-08T21:48:14;26.90;;;13.43;;
53521;SDS011;39398;48.382;9.802;2024-03-08T21:53:16;26.90;;;15.10;;
53521;SDS011;39398;48.382;9.802;2024-03-08T21:58:30;25.65;;;12.85;;
53521;SDS011;39398;48.382;9.802;2024-03-08T22:03:33;18.48;;;9.52;;
53521;SDS011;39398;48.382;9.802;2024-03-08T22:08:36;27.15;;;14.57;;
53521;SDS011;39398;48.382;9.802;2024-03-08T22:13:38;26.60;;;13.38;;
53521;SDS011;39398;48.382;9.802;2024-03-08T22:18:42;25.10;;;12.50;;
53521;SDS011;39398;48.382;9.802;2024-03-08T22:23:44;25.50;;;13.63;;
53521;SDS011;39398;48.382;9.802;2024-03-08T22:28:47;26.88;;;12.95;;
53521;SDS011;39398;48.382;9.802;2024-03-08T22:33:50;27.05;;;13.95;;
53521;SDS011;39398;48.382;9.802;2024-03-08T22:38:53;26.80;;;13.45;;
53521;SDS011;39398;48.382;9.802;2024-03-08T22:43:56;28.95;;;14.32;;
53521;SDS011;39398;48.382;9.802;2024-03-08T22:48:59;29.48;;;15.32;;
53521;SDS011;39398;48.382;9.802;2024-03-08T22:54:01;29.85;;;15.05;;
53521;SDS011;39398;48.382;9.802;2024-03-08T22:59:03;24.17;;;11.75;;
53521;SDS011;39398;48.382;9.802;2024-03-08T23:04:06;30.25;;;16.35;;
53521;SDS011;39398;48.382;9.802;2024-03-08T23:09:07;22.95;;;11.15;;
53521;SDS011;39398;48.382;9.802;2024-03-08T23:14:10;21.55;;;11.13;;
53521;SDS011;39398;48.382;9.802;2024-03-08T23:19:15;29.15;;;14.95;;
53521;SDS011;39398;48.382;9.802;2024-03-08T23:24:18;27.85;;;13.40;;
53521;SDS011;39398;48.382;9.802;2024-03-08T23:29:20;29.98;;;14.65;;
53521;SDS011;39398;48.382;9.802;2024-03-08T23:34:23;25.90;;;13.57;;
53521;SDS011;39398;48.382;9.802;2024-03-08T23:39:25;32.45;;;16.52;;
53521;SDS011;39398;48.382;9.802;2024-03-08T23:44:26;27.90;;;14.55;;
53521;SDS011;39398;48.382;9.802;2024-03-08T23:49:29;32.60;;;16.85;;
53521;SDS011;39398;48.382;9.802;2024-03-08T23:54:31;31.85;;;16.92;;
53521;SDS011;39398;48.382;9.802;2024-03-08T23:59:32;27.83;;;14.35;;
